createdAt,value
2022-12-11T00:02:02.733Z,96998.38
2022-12-11T00:04:29.241Z,97000.59
2022-12-11T00:06:55.673Z,96997.47
2022-12-11T00:09:22.624Z,97015.19
2022-12-11T00:11:49.231Z,97000.84
2022-12-11T00:14:16.296Z,97028.50
2022-12-11T00:16:43.038Z,97025.16
2022-12-11T00:19:09.438Z,97024.53
2022-12-11T00:21:36.084Z,97032.94
2022-12-11T00:24:02.661Z,97033.75
2022-12-11T00:26:29.259Z,97033.06
2022-12-11T00:28:56.682Z,97047.41
2022-12-11T00:31:24.146Z,97044.22
2022-12-11T00:33:51.367Z,97038.38
2022-12-11T00:36:23.930Z,97029.66
2022-12-11T00:38:51.003Z,97045.72
2022-12-11T00:41:17.904Z,97051.75
2022-12-11T00:43:44.731Z,97050.25
2022-12-11T00:46:11.875Z,97042.22
2022-12-11T00:48:38.832Z,97052.13
2022-12-11T00:51:05.645Z,97059.47
2022-12-11T00:53:32.109Z,97065.00
2022-12-11T00:55:58.569Z,97058.88
2022-12-11T00:58:24.979Z,97068.66
2022-12-11T01:00:52.600Z,97066.56
2022-12-11T01:03:19.085Z,97073.66
2022-12-11T01:05:55.104Z,97087.84
2022-12-11T01:08:22.012Z,97090.88
2022-12-11T01:10:48.585Z,97102.72
2022-12-11T01:13:15.770Z,97102.00
2022-12-11T01:15:44.997Z,97098.69
2022-12-11T01:18:13.660Z,97096.31
2022-12-11T01:20:42.519Z,97104.38
2022-12-11T01:23:12.422Z,97110.63
2022-12-11T01:25:38.971Z,97112.63
2022-12-11T01:28:06.597Z,97123.75
2022-12-11T01:30:33.253Z,97109.09
2022-12-11T01:33:00.594Z,97116.78
2022-12-11T01:35:28.133Z,97101.91
2022-12-11T01:37:54.678Z,97120.69
2022-12-11T01:40:22.414Z,97118.19
2022-12-11T01:42:48.954Z,97127.19
2022-12-11T01:45:21.604Z,97129.88
2022-12-11T01:47:54.318Z,97131.09
2022-12-11T01:50:20.870Z,97141.25
2022-12-11T01:52:49.414Z,97136.75
2022-12-11T01:55:17.936Z,97144.78
2022-12-11T01:57:47.274Z,97135.56
2022-12-11T02:00:14.151Z,97138.16
2022-12-11T02:02:40.889Z,97136.75
2022-12-11T02:05:08.711Z,97136.16
2022-12-11T02:07:46.659Z,97100.28
2022-12-11T02:10:13.793Z,97142.19
2022-12-11T02:12:56.701Z,97146.31
2022-12-11T02:15:40.195Z,97153.75
2022-12-11T02:18:24.661Z,97142.88
2022-12-11T02:21:11.059Z,97139.34
2022-12-11T02:23:53.379Z,97146.44
2022-12-11T02:26:46.307Z,97138.06
2022-12-11T02:29:20.987Z,97145.13
2022-12-11T02:32:13.586Z,97144.31
2022-12-11T02:34:39.979Z,97143.13
2022-12-11T02:37:13.415Z,97130.84
2022-12-11T02:39:44.071Z,97142.66
2022-12-11T02:42:13.015Z,97158.94
2022-12-11T02:44:40.905Z,97152.09
2022-12-11T02:47:12.771Z,97134.88
2022-12-11T02:49:43.511Z,97135.78
2022-12-11T02:52:14.642Z,97140.03
2022-12-11T02:54:44.855Z,97132.72
2022-12-11T02:57:31.443Z,97139.81
2022-12-11T02:59:58.235Z,97129.78
2022-12-11T03:02:24.888Z,97139.59
2022-12-11T03:04:51.657Z,97139.22
2022-12-11T03:07:24.456Z,97128.00
2022-12-11T03:09:52.028Z,97150.44
2022-12-11T03:12:29.678Z,97141.94
2022-12-11T03:14:59.720Z,97134.63
2022-12-11T03:17:54.782Z,97127.38
2022-12-11T03:20:32.518Z,97145.47
2022-12-11T03:23:12.632Z,97118.09
2022-12-11T03:25:51.527Z,97137.69
2022-12-11T03:28:49.067Z,97139.81
2022-12-11T03:31:44.891Z,97139.34
2022-12-11T03:34:18.608Z,97145.72
2022-12-11T03:36:47.410Z,97153.03
2022-12-11T03:39:21.900Z,97145.72
2022-12-11T03:41:50.415Z,97135.81
2022-12-11T03:44:18.400Z,97125.66
2022-12-11T03:46:47.619Z,97154.00
2022-12-11T03:49:20.457Z,97156.59
2022-12-11T03:51:50.357Z,97155.63
2022-12-11T03:54:17.938Z,97139.56
2022-12-11T03:56:45.856Z,97148.31
2022-12-11T03:59:13.916Z,97159.19
2022-12-11T04:01:40.409Z,97162.75
2022-12-11T04:04:06.962Z,97157.75
2022-12-11T04:06:33.436Z,97158.00
2022-12-11T04:08:59.888Z,97157.66
2022-12-11T04:11:35.288Z,97166.75
2022-12-11T04:14:26.218Z,97169.56
2022-12-11T04:16:53.868Z,97168.13
2022-12-11T04:19:39.791Z,97171.44
2022-12-11T04:22:25.271Z,97163.91
2022-12-11T04:24:51.767Z,97165.69
2022-12-11T04:27:38.556Z,97176.53
2022-12-11T04:30:07.753Z,97159.50
2022-12-11T04:32:34.419Z,97171.91
2022-12-11T04:35:01.172Z,97171.34
2022-12-11T04:37:28.273Z,97167.22
2022-12-11T04:39:54.708Z,97146.16
2022-12-11T04:42:21.117Z,97157.63
2022-12-11T04:44:47.627Z,97171.69
2022-12-11T04:47:14.084Z,97179.69
2022-12-11T04:49:40.574Z,97166.75
2022-12-11T04:52:07.079Z,97158.44
2022-12-11T04:54:33.632Z,97134.84
2022-12-11T04:57:00.020Z,97144.06
2022-12-11T04:59:26.480Z,97160.84
2022-12-11T05:01:53.057Z,97160.56
2022-12-11T05:04:19.641Z,97171.78
2022-12-11T05:06:46.411Z,97157.47
2022-12-11T05:09:13.294Z,97168.38
2022-12-11T05:11:39.735Z,97164.72
2022-12-11T05:14:06.502Z,97167.41
2022-12-11T05:16:33.012Z,97164.81
2022-12-11T05:18:59.753Z,97176.25
2022-12-11T05:21:30.255Z,97163.19
2022-12-11T05:23:59.681Z,97169.09
2022-12-11T05:26:26.086Z,97182.78
2022-12-11T05:28:54.243Z,97167.31
2022-12-11T05:31:23.381Z,97177.22
2022-12-11T05:33:50.317Z,97175.94
2022-12-11T05:36:23.690Z,97176.66
2022-12-11T05:38:50.450Z,97173.56
2022-12-11T05:41:19.698Z,97170.16
2022-12-11T05:43:46.275Z,97162.22
2022-12-11T05:46:14.656Z,97169.75
2022-12-11T05:48:41.813Z,97182.63
2022-12-11T05:51:08.956Z,97171.91
2022-12-11T05:53:36.980Z,97183.72
2022-12-11T05:56:24.247Z,97170.47
2022-12-11T05:58:51.187Z,97162.81
2022-12-11T06:01:29.034Z,97167.19
2022-12-11T06:03:56.521Z,97165.78
2022-12-11T06:06:24.266Z,97168.84
2022-12-11T06:08:52.103Z,97178.25
2022-12-11T06:11:23.777Z,97155.81
2022-12-11T06:13:51.488Z,97171.41
2022-12-11T06:16:18.132Z,97135.25
2022-12-11T06:18:45.487Z,97149.25
2022-12-11T06:21:13.844Z,97171.44
2022-12-11T06:23:41.393Z,97175.69
2022-12-11T06:26:08.983Z,97144.47
2022-12-11T06:28:35.458Z,97163.63
2022-12-11T06:31:02.038Z,97179.66
2022-12-11T06:33:28.496Z,97171.41
2022-12-11T06:35:55.071Z,97179.19
2022-12-11T06:38:21.484Z,97181.91
2022-12-11T06:40:54.900Z,97177.19
2022-12-11T06:43:21.506Z,97186.75
2022-12-11T06:45:48.250Z,97190.31
2022-12-11T06:48:14.703Z,97190.09
2022-12-11T06:50:41.748Z,97176.16
2022-12-11T06:53:09.370Z,97185.03
2022-12-11T06:55:36.432Z,97179.47
2022-12-11T06:58:03.273Z,97178.84
2022-12-11T07:00:30.149Z,97178.50
2022-12-11T07:02:56.686Z,97186.06
2022-12-11T07:05:23.772Z,97180.59
2022-12-11T07:07:50.218Z,97175.41
2022-12-11T07:10:17.349Z,97180.13
2022-12-11T07:12:43.734Z,97200.56
2022-12-11T07:15:10.734Z,97190.88
2022-12-11T07:17:37.364Z,97196.44
2022-12-11T07:20:04.873Z,97195.53
2022-12-11T07:22:31.463Z,97191.03
2022-12-11T07:24:57.929Z,97188.91
2022-12-11T07:27:24.546Z,97183.72
2022-12-11T07:29:51.169Z,97208.72
2022-12-11T07:32:17.941Z,97189.59
2022-12-11T07:34:48.651Z,97194.91
2022-12-11T07:37:18.080Z,97194.44
2022-12-11T07:39:44.507Z,97181.91
2022-12-11T07:42:10.882Z,97165.28
2022-12-11T07:44:37.398Z,97178.50
2022-12-11T07:47:04.029Z,97173.47
2022-12-11T07:49:30.530Z,97181.69
2022-12-11T07:51:57.248Z,97168.59
2022-12-11T07:54:23.665Z,97169.25
2022-12-11T07:56:53.721Z,97164.56
2022-12-11T07:59:21.181Z,97168.63
2022-12-11T08:01:47.739Z,97165.53
2022-12-11T08:04:15.717Z,97179.94
2022-12-11T08:06:43.160Z,97168.94
2022-12-11T08:09:17.491Z,97176.16
2022-12-11T08:11:51.642Z,97182.03
2022-12-11T08:14:18.514Z,97182.50
2022-12-11T08:16:45.024Z,97188.78
2022-12-11T08:19:12.652Z,97198.78
2022-12-11T08:21:40.363Z,97184.69
2022-12-11T08:24:07.821Z,97203.59
2022-12-11T08:26:34.548Z,97196.84
2022-12-11T08:29:02.340Z,97191.81
2022-12-11T08:31:30.087Z,97189.09
2022-12-11T08:33:57.458Z,97178.72
2022-12-11T08:36:25.090Z,97181.25
2022-12-11T08:38:53.782Z,97176.47
2022-12-11T08:41:29.048Z,97180.97
2022-12-11T08:43:57.491Z,97176.16
2022-12-11T08:46:26.708Z,97177.56
2022-12-11T08:48:54.952Z,97173.00
2022-12-11T08:51:23.441Z,97160.16
2022-12-11T08:53:51.193Z,97172.25
2022-12-11T08:56:19.859Z,97167.59
2022-12-11T08:58:46.914Z,97157.47
2022-12-11T09:01:25.332Z,97161.97
2022-12-11T09:03:53.067Z,97174.16
2022-12-11T09:06:21.815Z,97165.53
2022-12-11T09:08:52.634Z,97170.97
2022-12-11T09:11:23.288Z,97158.00
2022-12-11T09:13:50.042Z,97162.97
2022-12-11T09:16:19.135Z,97160.84
2022-12-11T09:18:47.446Z,97138.63
2022-12-11T09:21:17.317Z,97163.78
2022-12-11T09:23:44.333Z,97161.78
2022-12-11T09:26:13.376Z,97159.88
2022-12-11T09:28:44.416Z,97159.03
2022-12-11T09:31:15.846Z,97151.81
2022-12-11T09:33:42.549Z,97143.81
2022-12-11T09:36:10.410Z,97161.97
2022-12-11T09:38:36.856Z,97155.72
2022-12-11T09:41:17.677Z,97147.06
2022-12-11T09:43:49.959Z,97160.44
2022-12-11T09:46:17.345Z,97158.78
2022-12-11T09:48:46.808Z,97147.75
2022-12-11T09:51:20.965Z,97137.41
2022-12-11T09:53:50.244Z,97126.34
2022-12-11T09:56:33.399Z,97147.09
2022-12-11T09:59:31.826Z,97142.78
2022-12-11T10:02:42.348Z,97138.25
2022-12-11T10:05:21.636Z,97135.66
2022-12-11T10:08:11.524Z,97126.09
2022-12-11T10:10:48.670Z,97127.97
2022-12-11T10:13:30.699Z,97127.00
2022-12-11T10:16:10.875Z,97113.63
2022-12-11T10:18:38.585Z,97104.03
2022-12-11T10:21:05.892Z,97113.88
2022-12-11T10:23:54.279Z,97099.06
2022-12-11T10:26:22.597Z,97117.81
2022-12-11T10:28:49.730Z,97116.66
2022-12-11T10:31:43.948Z,97113.97
2022-12-11T10:34:15.468Z,97110.22
2022-12-11T10:36:43.268Z,97104.03
2022-12-11T10:39:15.925Z,97096.91
2022-12-11T10:41:44.230Z,97087.25
2022-12-11T10:44:25.346Z,97087.19
2022-12-11T10:47:14.600Z,97087.28
2022-12-11T10:50:02.003Z,97073.16
2022-12-11T10:52:38.080Z,97077.50
2022-12-11T10:55:20.906Z,97067.31
2022-12-11T10:57:55.620Z,97048.16
2022-12-11T11:00:32.267Z,97057.75
2022-12-11T11:03:00.032Z,97041.09
2022-12-11T11:05:37.242Z,97036.88
2022-12-11T11:08:16.329Z,97026.88
2022-12-11T11:11:00.237Z,97022.66
2022-12-11T11:13:30.451Z,97028.03
2022-12-11T11:16:03.048Z,97033.31
2022-12-11T11:18:30.791Z,97040.19
2022-12-11T11:20:58.367Z,97052.47
2022-12-11T11:23:25.930Z,97050.84
2022-12-11T11:25:58.943Z,97058.28
2022-12-11T11:28:34.034Z,97044.38
2022-12-11T11:31:08.769Z,97047.06
2022-12-11T11:33:37.848Z,97040.34
2022-12-11T11:36:07.292Z,97029.78
2022-12-11T11:38:39.464Z,97040.19
2022-12-11T11:41:15.135Z,97028.59
2022-12-11T11:43:51.114Z,97037.47
2022-12-11T11:46:23.909Z,97038.59
2022-12-11T11:49:17.590Z,97037.78
2022-12-11T11:51:54.647Z,97010.28
2022-12-11T11:54:43.068Z,97033.97
2022-12-11T11:57:35.564Z,97036.16
2022-12-11T12:00:10.827Z,97033.03
2022-12-11T12:02:37.717Z,97037.38
2022-12-11T12:05:04.661Z,97027.03
2022-12-11T12:07:38.658Z,97017.44
2022-12-11T12:10:38.051Z,97028.69
2022-12-11T12:13:48.115Z,97009.03
2022-12-11T12:16:51.674Z,97002.81
2022-12-11T12:19:52.979Z,97017.22
2022-12-11T12:22:27.672Z,97013.16
2022-12-11T12:25:10.709Z,97023.31
2022-12-11T12:27:52.609Z,97011.19
2022-12-11T12:30:22.887Z,97011.34
2022-12-11T12:33:15.032Z,97011.94
2022-12-11T12:36:06.655Z,97011.63
2022-12-11T12:38:50.187Z,96995.00
2022-12-11T12:41:16.874Z,97015.97
2022-12-11T12:44:02.066Z,97017.59
2022-12-11T12:46:31.232Z,97015.53
2022-12-11T12:49:00.332Z,97018.28
2022-12-11T12:51:27.661Z,97018.19
2022-12-11T12:54:00.465Z,97014.97
2022-12-11T12:56:31.341Z,97007.47
2022-12-11T12:58:57.910Z,97016.13
2022-12-11T13:01:26.662Z,97017.75
2022-12-11T13:04:01.623Z,97020.59
2022-12-11T13:06:40.776Z,97021.81
2022-12-11T13:09:25.704Z,97021.63
2022-12-11T13:11:57.638Z,97024.84
2022-12-11T13:14:30.197Z,97018.84
2022-12-11T13:17:26.223Z,97004.69
2022-12-11T13:20:14.172Z,97012.66
2022-12-11T13:22:56.198Z,97013.47
2022-12-11T13:25:29.155Z,97010.00
2022-12-11T13:28:22.078Z,97020.59
2022-12-11T13:31:17.737Z,96984.13
2022-12-11T13:33:49.665Z,97025.56
2022-12-11T13:36:24.148Z,97025.31
2022-12-11T13:38:55.636Z,97020.09
2022-12-11T13:41:22.685Z,97021.56
2022-12-11T13:43:50.373Z,97028.13
2022-12-11T13:46:24.349Z,97032.19
2022-12-11T13:49:00.807Z,97029.41
2022-12-11T13:51:30.938Z,97028.13
2022-12-11T13:54:28.240Z,97025.69
2022-12-11T13:56:58.805Z,97024.84
2022-12-11T13:59:37.031Z,97029.28
2022-12-11T14:02:36.547Z,97027.09
2022-12-11T14:05:07.148Z,97019.25
2022-12-11T14:07:38.965Z,97022.63
2022-12-11T14:10:09.857Z,97022.72
2022-12-11T14:12:37.158Z,97023.19
2022-12-11T14:15:05.084Z,97023.78
2022-12-11T14:17:34.610Z,97028.09
2022-12-11T14:20:07.345Z,97026.94
2022-12-11T14:22:34.046Z,97012.66
2022-12-11T14:25:03.694Z,97018.25
2022-12-11T14:27:30.413Z,97016.94
2022-12-11T14:29:57.002Z,97024.22
2022-12-11T14:32:35.877Z,97020.16
2022-12-11T14:35:05.525Z,97010.53
2022-12-11T14:37:35.292Z,97020.91
2022-12-11T14:40:07.355Z,97023.31
2022-12-11T14:42:40.480Z,97043.94
2022-12-11T14:45:27.353Z,97048.28
2022-12-11T14:47:54.909Z,97053.16
2022-12-11T14:50:26.114Z,97051.38
2022-12-11T14:52:57.453Z,97055.38
2022-12-11T14:55:30.752Z,97056.91
2022-12-11T14:58:00.550Z,97060.25
2022-12-11T15:00:33.601Z,97065.19
2022-12-11T15:03:22.876Z,97065.88
2022-12-11T15:05:54.830Z,97068.25
2022-12-11T15:08:27.610Z,97071.78
2022-12-11T15:11:06.903Z,97070.03
2022-12-11T15:13:35.805Z,97060.06
2022-12-11T15:16:04.163Z,97063.94
2022-12-11T15:18:34.123Z,97069.53
2022-12-11T15:21:07.091Z,97074.09
2022-12-11T15:23:46.269Z,97073.22
2022-12-11T15:26:12.917Z,97066.81
2022-12-11T15:28:39.858Z,97051.50
2022-12-11T15:31:23.394Z,97047.91
2022-12-11T15:33:50.065Z,97072.47
2022-12-11T15:36:34.611Z,97069.66
2022-12-11T15:39:02.141Z,97064.47
2022-12-11T15:41:33.091Z,97062.34
2022-12-11T15:44:01.962Z,97056.44
2022-12-11T15:46:28.902Z,97009.41
2022-12-11T15:48:57.571Z,97059.28
2022-12-11T15:51:25.562Z,97067.25
2022-12-11T15:53:52.009Z,97052.59
2022-12-11T15:56:18.495Z,97065.84
2022-12-11T15:58:46.943Z,97077.63
2022-12-11T16:01:13.387Z,97068.16
2022-12-11T16:03:39.864Z,97074.81
2022-12-11T16:06:06.536Z,97080.66
2022-12-11T16:08:33.109Z,97091.72
2022-12-11T16:10:59.701Z,97086.59
2022-12-11T16:13:26.123Z,97079.63
2022-12-11T16:15:55.262Z,97091.47
2022-12-11T16:18:23.722Z,97092.53
2022-12-11T16:20:51.822Z,97091.47
2022-12-11T16:23:19.016Z,97096.75
2022-12-11T16:25:46.751Z,97093.59
2022-12-11T16:28:15.695Z,97094.63
2022-12-11T16:30:43.566Z,97092.38
2022-12-11T16:33:13.255Z,97092.78
2022-12-11T16:35:41.363Z,97098.69
2022-12-11T16:38:08.210Z,97088.09
2022-12-11T16:40:35.125Z,97086.53
2022-12-11T16:43:03.395Z,97090.19
2022-12-11T16:45:29.849Z,97072.44
2022-12-11T16:47:56.794Z,97088.91
2022-12-11T16:50:24.070Z,97080.22
2022-12-11T16:52:50.500Z,97093.53
2022-12-11T16:55:21.079Z,97094.97
2022-12-11T16:57:48.053Z,97087.09
2022-12-11T17:00:15.425Z,97089.91
2022-12-11T17:02:42.051Z,97078.19
2022-12-11T17:05:08.857Z,97101.06
2022-12-11T17:07:35.422Z,97081.38
2022-12-11T17:10:03.652Z,97084.13
2022-12-11T17:12:30.603Z,97099.97
2022-12-11T17:14:57.194Z,97098.78
2022-12-11T17:17:24.193Z,97097.53
2022-12-11T17:19:50.622Z,97094.09
2022-12-11T17:22:17.073Z,97091.91
2022-12-11T17:24:43.703Z,97102.50
2022-12-11T17:27:10.515Z,97097.56
2022-12-11T17:29:36.907Z,97079.69
2022-12-11T17:32:03.421Z,97083.97
2022-12-11T17:34:36.043Z,97084.09
2022-12-11T17:37:04.931Z,97089.97
2022-12-11T17:39:31.745Z,97082.53
2022-12-11T17:41:58.332Z,97094.06
2022-12-11T17:44:26.545Z,97094.53
2022-12-11T17:46:53.224Z,97094.28
2022-12-11T17:49:20.302Z,97089.72
2022-12-11T17:51:47.853Z,97084.47
2022-12-11T17:54:14.593Z,97099.00
2022-12-11T17:56:41.215Z,97086.22
2022-12-11T17:59:07.663Z,97099.69
2022-12-11T18:01:34.634Z,97095.34
2022-12-11T18:04:04.108Z,97095.97
2022-12-11T18:06:31.048Z,97110.13
2022-12-11T18:08:57.760Z,97048.28
2022-12-11T18:11:24.471Z,97107.84
2022-12-11T18:13:52.381Z,97119.88
2022-12-11T18:16:26.345Z,97110.47
2022-12-11T18:18:53.760Z,97104.75
2022-12-11T18:21:23.494Z,97109.84
2022-12-11T18:23:50.572Z,97103.06
2022-12-11T18:26:18.657Z,97106.38
2022-12-11T18:28:45.892Z,97095.28
2022-12-11T18:31:13.509Z,97101.06
2022-12-11T18:33:42.091Z,97122.59
2022-12-11T18:36:09.581Z,97124.22
2022-12-11T18:38:36.479Z,97116.66
2022-12-11T18:41:09.363Z,97112.00
2022-12-11T18:43:36.536Z,97107.66
2022-12-11T18:46:12.029Z,97117.44
2022-12-11T18:48:38.592Z,97127.75
2022-12-11T18:51:07.985Z,97124.28
2022-12-11T18:53:35.247Z,97133.84
2022-12-11T18:56:10.052Z,97134.50
2022-12-11T18:58:36.714Z,97124.50
2022-12-11T19:01:11.977Z,97127.00
2022-12-11T19:03:38.482Z,97116.44
2022-12-11T19:06:11.143Z,97120.75
2022-12-11T19:08:37.762Z,97082.03
2022-12-11T19:11:04.647Z,97122.19
2022-12-11T19:13:31.488Z,97126.53
2022-12-11T19:15:58.010Z,97124.00
2022-12-11T19:18:25.615Z,97126.16
2022-12-11T19:21:02.847Z,97118.81
2022-12-11T19:23:33.043Z,97117.81
2022-12-11T19:25:59.514Z,97106.84
2022-12-11T19:28:25.957Z,97110.59
2022-12-11T19:30:52.442Z,97124.66
2022-12-11T19:33:18.899Z,97129.25
2022-12-11T19:35:45.327Z,97128.28
2022-12-11T19:38:12.978Z,97117.44
2022-12-11T19:40:41.877Z,97110.16
2022-12-11T19:43:09.140Z,97111.69
2022-12-11T19:45:36.009Z,97114.28
2022-12-11T19:48:02.700Z,97111.38
2022-12-11T19:50:29.208Z,97100.25
2022-12-11T19:52:55.624Z,97106.75
2022-12-11T19:55:22.126Z,97104.97
2022-12-11T19:57:48.566Z,97093.28
2022-12-11T20:00:15.383Z,97108.84
2022-12-11T20:02:41.791Z,97111.19
2022-12-11T20:05:09.154Z,97103.66
2022-12-11T20:07:36.303Z,97117.78
2022-12-11T20:10:03.086Z,97101.09
2022-12-11T20:12:29.597Z,97108.16
2022-12-11T20:14:56.192Z,97103.78
2022-12-11T20:17:22.636Z,97096.41
2022-12-11T20:19:49.180Z,97115.34
2022-12-11T20:22:15.736Z,97096.03
2022-12-11T20:24:42.177Z,97096.81
2022-12-11T20:27:10.067Z,97097.72
2022-12-11T20:29:37.822Z,97101.00
2022-12-11T20:32:05.166Z,97103.81
2022-12-11T20:34:31.827Z,97098.75
2022-12-11T20:37:00.196Z,97107.13
2022-12-11T20:39:27.129Z,97093.94
2022-12-11T20:41:53.660Z,97098.91
2022-12-11T20:44:20.616Z,97098.09
2022-12-11T20:46:47.085Z,97099.06
2022-12-11T20:49:13.644Z,97097.44
2022-12-11T20:51:41.573Z,97097.16
2022-12-11T20:54:07.994Z,97102.91
2022-12-11T20:56:34.594Z,97093.44
2022-12-11T20:59:01.046Z,97103.81
2022-12-11T21:01:31.110Z,97100.78
2022-12-11T21:03:58.896Z,97093.69
2022-12-11T21:06:31.566Z,97098.66
2022-12-11T21:09:03.808Z,97099.41
2022-12-11T21:11:30.329Z,97095.13
2022-12-11T21:13:56.895Z,97097.59
2022-12-11T21:16:23.568Z,97095.13
2022-12-11T21:18:50.196Z,97097.47
2022-12-11T21:21:17.123Z,97088.38
2022-12-11T21:23:44.597Z,97093.00
2022-12-11T21:26:11.606Z,97092.28
2022-12-11T21:28:38.039Z,97105.22
2022-12-11T21:31:08.334Z,97071.13
2022-12-11T21:33:35.983Z,97092.78
2022-12-11T21:36:03.706Z,97097.03
2022-12-11T21:38:30.426Z,97117.41
2022-12-11T21:40:57.419Z,97109.03
2022-12-11T21:43:24.905Z,97107.41
2022-12-11T21:46:00.884Z,97102.66
2022-12-11T21:48:28.294Z,97108.31
2022-12-11T21:50:54.789Z,97103.63
2022-12-11T21:53:21.208Z,97099.19
2022-12-11T21:55:47.637Z,97115.38
2022-12-11T21:58:14.023Z,97114.59
2022-12-11T22:00:40.446Z,97114.78
2022-12-11T22:03:06.989Z,97113.88
2022-12-11T22:05:33.470Z,97117.56
2022-12-11T22:07:59.995Z,97107.69
2022-12-11T22:10:28.214Z,97114.91
2022-12-11T22:12:54.915Z,97109.66
2022-12-11T22:15:21.398Z,97097.72
2022-12-11T22:17:47.857Z,97122.94
2022-12-11T22:20:14.583Z,97126.94
2022-12-11T22:22:41.419Z,97107.78
2022-12-11T22:25:08.159Z,97122.56
2022-12-11T22:27:34.973Z,97111.06
2022-12-11T22:30:01.426Z,97111.47
2022-12-11T22:32:27.911Z,97108.31
2022-12-11T22:34:56.418Z,97117.59
2022-12-11T22:37:23.268Z,97112.75
2022-12-11T22:39:49.867Z,97123.81
2022-12-11T22:42:16.423Z,97116.31
2022-12-11T22:44:42.988Z,97118.56
2022-12-11T22:47:09.915Z,97100.16
2022-12-11T22:49:36.358Z,97111.25
2022-12-11T22:52:03.000Z,97113.59
2022-12-11T22:54:29.455Z,97096.38
2022-12-11T22:56:55.849Z,97098.53
2022-12-11T22:59:23.122Z,97081.19
2022-12-11T23:01:49.785Z,97111.47
2022-12-11T23:04:16.185Z,97111.34
2022-12-11T23:06:42.598Z,97113.97
2022-12-11T23:09:10.086Z,97098.91
2022-12-11T23:11:37.855Z,97109.81
2022-12-11T23:14:06.928Z,97121.94
2022-12-11T23:16:33.734Z,97116.31
2022-12-11T23:19:00.740Z,97103.56
2022-12-11T23:21:28.103Z,97112.22
2022-12-11T23:23:55.361Z,97118.72
2022-12-11T23:26:22.019Z,97117.75
2022-12-11T23:28:49.156Z,97115.59
2022-12-11T23:31:16.546Z,97117.44
2022-12-11T23:33:43.035Z,97114.91
2022-12-11T23:36:09.854Z,97106.97
2022-12-11T23:38:37.466Z,97130.66
2022-12-11T23:41:05.232Z,97141.50
2022-12-11T23:43:31.829Z,97138.56
2022-12-11T23:45:58.450Z,97141.69
2022-12-11T23:48:25.249Z,97143.19
2022-12-11T23:50:51.892Z,97138.34
2022-12-11T23:53:18.402Z,97138.91
2022-12-11T23:55:45.312Z,97137.78
2022-12-11T23:58:12.752Z,97153.91
